sensor_id;sensor_type;location;lat;lon;timestamp;P1;durP1;ratioP1;P2;durP2;ratioP2
18172;SDS011;9211;48.818;9.312;2024-01-15T00:00:21;56.13;;;21.77;;
18172;SDS011;9211;48.818;9.312;2024-01-15T00:02:50;55.08;;;21.63;;
18172;SDS011;9211;48.818;9.312;2024-01-15T00:05:17;57.08;;;22.33;;
18172;SDS011;9211;48.818;9.312;2024-01-15T00:07:45;55.53;;;22.27;;
18172;SDS011;9211;48.818;9.312;2024-01-15T00:10:12;53.10;;;21.20;;
18172;SDS011;9211;48.818;9.312;2024-01-15T00:12:39;55.63;;;21.77;;
18172;SDS011;9211;48.818;9.312;2024-01-15T00:15:06;54.05;;;21.80;;
18172;SDS011;9211;48.818;9.312;2024-01-15T00:17:34;57.78;;;22.02;;
18172;SDS011;9211;48.818;9.312;2024-01-15T00:20:01;55.47;;;21.77;;
18172;SDS011;9211;48.818;9.312;2024-01-15T00:22:28;54.57;;;21.63;;
18172;SDS011;9211;48.818;9.312;2024-01-15T00:24:57;52.97;;;21.13;;
18172;SDS011;9211;48.818;9.312;2024-01-15T00:27:24;52.53;;;20.60;;
18172;SDS011;9211;48.818;9.312;2024-01-15T00:29:51;54.55;;;21.95;;
18172;SDS011;9211;48.818;9.312;2024-01-15T00:32:19;60.90;;;21.85;;
18172;SDS011;9211;48.818;9.312;2024-01-15T00:34:46;55.27;;;21.17;;
18172;SDS011;9211;48.818;9.312;2024-01-15T00:37:13;55.95;;;21.27;;
18172;SDS011;9211;48.818;9.312;2024-01-15T00:39:40;55.88;;;21.25;;
18172;SDS011;9211;48.818;9.312;2024-01-15T00:42:08;55.17;;;21.42;;
18172;SDS011;9211;48.818;9.312;2024-01-15T00:44:35;52.42;;;20.30;;
18172;SDS011;9211;48.818;9.312;2024-01-15T00:47:02;53.10;;;20.20;;
18172;SDS011;9211;48.818;9.312;2024-01-15T00:49:29;56.25;;;21.25;;
18172;SDS011;9211;48.818;9.312;2024-01-15T00:51:56;50.45;;;19.98;;
18172;SDS011;9211;48.818;9.312;2024-01-15T00:54:23;53.58;;;20.83;;
18172;SDS011;9211;48.818;9.312;2024-01-15T00:56:50;53.45;;;21.20;;
18172;SDS011;9211;48.818;9.312;2024-01-15T00:59:19;56.33;;;21.85;;
18172;SDS011;9211;48.818;9.312;2024-01-15T01:01:46;54.03;;;21.30;;
18172;SDS011;9211;48.818;9.312;2024-01-15T01:04:12;52.15;;;20.70;;
18172;SDS011;9211;48.818;9.312;2024-01-15T01:06:39;54.20;;;21.38;;
18172;SDS011;9211;48.818;9.312;2024-01-15T01:09:06;50.03;;;20.48;;
18172;SDS011;9211;48.818;9.312;2024-01-15T01:11:33;50.50;;;20.40;;
18172;SDS011;9211;48.818;9.312;2024-01-15T01:14:01;51.67;;;20.85;;
18172;SDS011;9211;48.818;9.312;2024-01-15T01:16:29;53.83;;;20.70;;
18172;SDS011;9211;48.818;9.312;2024-01-15T01:18:59;52.08;;;20.80;;
18172;SDS011;9211;48.818;9.312;2024-01-15T01:21:26;53.00;;;21.25;;
18172;SDS011;9211;48.818;9.312;2024-01-15T01:23:53;51.43;;;20.43;;
18172;SDS011;9211;48.818;9.312;2024-01-15T01:26:20;53.13;;;21.63;;
18172;SDS011;9211;48.818;9.312;2024-01-15T01:28:47;51.10;;;20.50;;
18172;SDS011;9211;48.818;9.312;2024-01-15T01:31:14;50.58;;;20.38;;
18172;SDS011;9211;48.818;9.312;2024-01-15T01:33:43;51.45;;;20.67;;
18172;SDS011;9211;48.818;9.312;2024-01-15T01:36:10;52.40;;;20.58;;
18172;SDS011;9211;48.818;9.312;2024-01-15T01:38:37;50.50;;;20.80;;
18172;SDS011;9211;48.818;9.312;2024-01-15T01:41:04;53.80;;;20.38;;
18172;SDS011;9211;48.818;9.312;2024-01-15T01:43:31;49.97;;;20.45;;
18172;SDS011;9211;48.818;9.312;2024-01-15T01:45:58;51.03;;;21.17;;
18172;SDS011;9211;48.818;9.312;2024-01-15T01:48:28;51.88;;;20.88;;
18172;SDS011;9211;48.818;9.312;2024-01-15T01:50:58;55.00;;;20.98;;
18172;SDS011;9211;48.818;9.312;2024-01-15T01:53:27;52.78;;;20.70;;
18172;SDS011;9211;48.818;9.312;2024-01-15T01:55:55;49.20;;;20.70;;
18172;SDS011;9211;48.818;9.312;2024-01-15T01:58:23;50.10;;;20.23;;
18172;SDS011;9211;48.818;9.312;2024-01-15T02:00:50;46.72;;;19.42;;
18172;SDS011;9211;48.818;9.312;2024-01-15T02:03:17;50.05;;;20.58;;
18172;SDS011;9211;48.818;9.312;2024-01-15T02:05:44;51.58;;;21.25;;
18172;SDS011;9211;48.818;9.312;2024-01-15T02:08:15;52.38;;;20.77;;
18172;SDS011;9211;48.818;9.312;2024-01-15T02:10:42;51.10;;;21.05;;
18172;SDS011;9211;48.818;9.312;2024-01-15T02:13:09;50.80;;;21.03;;
18172;SDS011;9211;48.818;9.312;2024-01-15T02:15:36;54.53;;;21.23;;
18172;SDS011;9211;48.818;9.312;2024-01-15T02:18:04;49.03;;;20.00;;
18172;SDS011;9211;48.818;9.312;2024-01-15T02:20:32;49.97;;;19.45;;
18172;SDS011;9211;48.818;9.312;2024-01-15T02:23:03;49.10;;;18.70;;
18172;SDS011;9211;48.818;9.312;2024-01-15T02:25:34;46.58;;;19.65;;
18172;SDS011;9211;48.818;9.312;2024-01-15T02:28:02;47.42;;;19.25;;
18172;SDS011;9211;48.818;9.312;2024-01-15T02:30:29;49.78;;;19.67;;
18172;SDS011;9211;48.818;9.312;2024-01-15T02:33:00;42.63;;;17.38;;
18172;SDS011;9211;48.818;9.312;2024-01-15T02:35:27;39.45;;;16.67;;
18172;SDS011;9211;48.818;9.312;2024-01-15T02:37:54;44.03;;;16.92;;
18172;SDS011;9211;48.818;9.312;2024-01-15T02:40:22;40.23;;;16.77;;
18172;SDS011;9211;48.818;9.312;2024-01-15T02:42:49;34.72;;;14.23;;
18172;SDS011;9211;48.818;9.312;2024-01-15T02:45:16;28.90;;;12.18;;
18172;SDS011;9211;48.818;9.312;2024-01-15T02:47:43;27.40;;;10.98;;
18172;SDS011;9211;48.818;9.312;2024-01-15T02:50:10;24.17;;;10.07;;
18172;SDS011;9211;48.818;9.312;2024-01-15T02:52:37;25.95;;;11.00;;
18172;SDS011;9211;48.818;9.312;2024-01-15T02:55:04;23.95;;;9.90;;
18172;SDS011;9211;48.818;9.312;2024-01-15T02:57:33;24.13;;;9.73;;
18172;SDS011;9211;48.818;9.312;2024-01-15T03:00:00;24.38;;;9.98;;
18172;SDS011;9211;48.818;9.312;2024-01-15T03:02:28;23.13;;;10.02;;
18172;SDS011;9211;48.818;9.312;2024-01-15T03:04:56;23.38;;;9.60;;
18172;SDS011;9211;48.818;9.312;2024-01-15T03:07:23;23.95;;;10.15;;
18172;SDS011;9211;48.818;9.312;2024-01-15T03:09:50;24.07;;;10.13;;
18172;SDS011;9211;48.818;9.312;2024-01-15T03:12:17;25.00;;;10.15;;
18172;SDS011;9211;48.818;9.312;2024-01-15T03:14:45;25.05;;;9.45;;
18172;SDS011;9211;48.818;9.312;2024-01-15T03:17:12;22.65;;;9.52;;
18172;SDS011;9211;48.818;9.312;2024-01-15T03:19:39;24.23;;;9.57;;
18172;SDS011;9211;48.818;9.312;2024-01-15T03:22:06;23.30;;;9.82;;
18172;SDS011;9211;48.818;9.312;2024-01-15T03:24:34;25.13;;;9.70;;
18172;SDS011;9211;48.818;9.312;2024-01-15T03:27:01;24.48;;;9.80;;
18172;SDS011;9211;48.818;9.312;2024-01-15T03:29:29;25.15;;;10.07;;
18172;SDS011;9211;48.818;9.312;2024-01-15T03:31:57;23.25;;;9.60;;
18172;SDS011;9211;48.818;9.312;2024-01-15T03:34:24;21.60;;;9.68;;
18172;SDS011;9211;48.818;9.312;2024-01-15T03:36:51;24.20;;;9.85;;
18172;SDS011;9211;48.818;9.312;2024-01-15T03:39:18;24.20;;;9.63;;
18172;SDS011;9211;48.818;9.312;2024-01-15T03:41:45;22.48;;;9.52;;
18172;SDS011;9211;48.818;9.312;2024-01-15T03:44:11;23.83;;;9.98;;
18172;SDS011;9211;48.818;9.312;2024-01-15T03:46:38;24.90;;;10.27;;
18172;SDS011;9211;48.818;9.312;2024-01-15T03:49:07;24.00;;;9.90;;
18172;SDS011;9211;48.818;9.312;2024-01-15T03:51:34;22.00;;;9.93;;
18172;SDS011;9211;48.818;9.312;2024-01-15T03:54:00;25.05;;;10.10;;
18172;SDS011;9211;48.818;9.312;2024-01-15T03:56:27;23.05;;;9.77;;
18172;SDS011;9211;48.818;9.312;2024-01-15T03:58:54;21.80;;;9.47;;
18172;SDS011;9211;48.818;9.312;2024-01-15T04:01:21;24.15;;;10.35;;
18172;SDS011;9211;48.818;9.312;2024-01-15T04:03:48;22.17;;;9.55;;
18172;SDS011;9211;48.818;9.312;2024-01-15T04:06:16;24.80;;;9.90;;
18172;SDS011;9211;48.818;9.312;2024-01-15T04:08:43;24.15;;;10.18;;
18172;SDS011;9211;48.818;9.312;2024-01-15T04:11:10;25.53;;;10.47;;
18172;SDS011;9211;48.818;9.312;2024-01-15T04:13:37;22.98;;;9.73;;
18172;SDS011;9211;48.818;9.312;2024-01-15T04:16:04;23.65;;;9.95;;
18172;SDS011;9211;48.818;9.312;2024-01-15T04:18:31;26.83;;;10.38;;
18172;SDS011;9211;48.818;9.312;2024-01-15T04:20:58;24.35;;;10.23;;
18172;SDS011;9211;48.818;9.312;2024-01-15T04:23:26;25.40;;;10.40;;
18172;SDS011;9211;48.818;9.312;2024-01-15T04:25:53;24.15;;;10.35;;
18172;SDS011;9211;48.818;9.312;2024-01-15T04:28:20;26.33;;;10.37;;
18172;SDS011;9211;48.818;9.312;2024-01-15T04:30:47;24.27;;;10.68;;
18172;SDS011;9211;48.818;9.312;2024-01-15T04:33:14;25.23;;;10.40;;
18172;SDS011;9211;48.818;9.312;2024-01-15T04:35:41;25.23;;;10.38;;
18172;SDS011;9211;48.818;9.312;2024-01-15T04:38:08;22.35;;;9.55;;
18172;SDS011;9211;48.818;9.312;2024-01-15T04:40:37;24.73;;;10.23;;
18172;SDS011;9211;48.818;9.312;2024-01-15T04:43:04;24.38;;;10.15;;
18172;SDS011;9211;48.818;9.312;2024-01-15T04:45:31;21.60;;;9.90;;
18172;SDS011;9211;48.818;9.312;2024-01-15T04:47:58;25.88;;;10.50;;
18172;SDS011;9211;48.818;9.312;2024-01-15T04:50:24;26.50;;;10.50;;
18172;SDS011;9211;48.818;9.312;2024-01-15T04:52:51;23.85;;;10.25;;
18172;SDS011;9211;48.818;9.312;2024-01-15T04:55:17;22.70;;;9.48;;
18172;SDS011;9211;48.818;9.312;2024-01-15T04:57:46;25.00;;;10.43;;
18172;SDS011;9211;48.818;9.312;2024-01-15T05:00:13;24.30;;;10.38;;
18172;SDS011;9211;48.818;9.312;2024-01-15T05:02:40;20.90;;;9.57;;
18172;SDS011;9211;48.818;9.312;2024-01-15T05:05:07;21.63;;;9.10;;
18172;SDS011;9211;48.818;9.312;2024-01-15T05:07:34;22.25;;;9.27;;
18172;SDS011;9211;48.818;9.312;2024-01-15T05:10:01;18.88;;;8.60;;
18172;SDS011;9211;48.818;9.312;2024-01-15T05:12:28;21.67;;;8.85;;
18172;SDS011;9211;48.818;9.312;2024-01-15T05:14:57;20.65;;;8.50;;
18172;SDS011;9211;48.818;9.312;2024-01-15T05:17:24;20.08;;;8.65;;
18172;SDS011;9211;48.818;9.312;2024-01-15T05:19:50;18.45;;;8.27;;
18172;SDS011;9211;48.818;9.312;2024-01-15T05:22:17;19.98;;;8.18;;
18172;SDS011;9211;48.818;9.312;2024-01-15T05:24:44;20.05;;;8.57;;
18172;SDS011;9211;48.818;9.312;2024-01-15T05:27:11;19.45;;;8.40;;
18172;SDS011;9211;48.818;9.312;2024-01-15T05:29:38;19.00;;;7.95;;
18172;SDS011;9211;48.818;9.312;2024-01-15T05:32:06;20.50;;;8.67;;
18172;SDS011;9211;48.818;9.312;2024-01-15T05:34:33;20.45;;;8.80;;
18172;SDS011;9211;48.818;9.312;2024-01-15T05:37:00;19.95;;;8.30;;
18172;SDS011;9211;48.818;9.312;2024-01-15T05:39:27;19.77;;;8.98;;
18172;SDS011;9211;48.818;9.312;2024-01-15T05:41:54;20.92;;;8.80;;
18172;SDS011;9211;48.818;9.312;2024-01-15T05:44:21;17.80;;;8.32;;
18172;SDS011;9211;48.818;9.312;2024-01-15T05:46:48;18.93;;;8.30;;
18172;SDS011;9211;48.818;9.312;2024-01-15T05:49:16;20.58;;;9.00;;
18172;SDS011;9211;48.818;9.312;2024-01-15T05:51:43;19.95;;;8.50;;
18172;SDS011;9211;48.818;9.312;2024-01-15T05:54:10;18.27;;;8.52;;
18172;SDS011;9211;48.818;9.312;2024-01-15T05:56:37;18.23;;;8.27;;
18172;SDS011;9211;48.818;9.312;2024-01-15T05:59:04;20.37;;;8.50;;
18172;SDS011;9211;48.818;9.312;2024-01-15T06:01:30;19.38;;;8.70;;
18172;SDS011;9211;48.818;9.312;2024-01-15T06:04:00;19.55;;;8.73;;
18172;SDS011;9211;48.818;9.312;2024-01-15T06:06:28;19.08;;;8.85;;
18172;SDS011;9211;48.818;9.312;2024-01-15T06:08:57;19.05;;;8.30;;
18172;SDS011;9211;48.818;9.312;2024-01-15T06:11:30;19.08;;;8.05;;
18172;SDS011;9211;48.818;9.312;2024-01-15T06:13:57;19.02;;;8.40;;
18172;SDS011;9211;48.818;9.312;2024-01-15T06:16:25;18.83;;;8.23;;
18172;SDS011;9211;48.818;9.312;2024-01-15T06:18:52;20.30;;;8.88;;
18172;SDS011;9211;48.818;9.312;2024-01-15T06:21:19;20.90;;;8.88;;
18172;SDS011;9211;48.818;9.312;2024-01-15T06:23:48;20.17;;;8.57;;
18172;SDS011;9211;48.818;9.312;2024-01-15T06:26:15;20.45;;;8.45;;
18172;SDS011;9211;48.818;9.312;2024-01-15T06:28:42;17.50;;;8.23;;
18172;SDS011;9211;48.818;9.312;2024-01-15T06:31:16;19.95;;;8.43;;
18172;SDS011;9211;48.818;9.312;2024-01-15T06:33:57;23.45;;;8.60;;
18172;SDS011;9211;48.818;9.312;2024-01-15T06:36:26;20.10;;;8.82;;
18172;SDS011;9211;48.818;9.312;2024-01-15T06:38:55;18.83;;;8.40;;
18172;SDS011;9211;48.818;9.312;2024-01-15T06:41:22;19.67;;;8.10;;
18172;SDS011;9211;48.818;9.312;2024-01-15T06:43:50;18.03;;;7.80;;
18172;SDS011;9211;48.818;9.312;2024-01-15T06:46:19;19.77;;;8.70;;
18172;SDS011;9211;48.818;9.312;2024-01-15T06:48:47;20.02;;;8.40;;
18172;SDS011;9211;48.818;9.312;2024-01-15T06:51:15;19.10;;;8.20;;
18172;SDS011;9211;48.818;9.312;2024-01-15T06:53:42;21.58;;;8.57;;
18172;SDS011;9211;48.818;9.312;2024-01-15T06:56:10;16.75;;;8.02;;
18172;SDS011;9211;48.818;9.312;2024-01-15T06:58:37;21.77;;;9.13;;
18172;SDS011;9211;48.818;9.312;2024-01-15T07:01:05;18.70;;;8.73;;
18172;SDS011;9211;48.818;9.312;2024-01-15T07:03:33;18.70;;;8.73;;
18172;SDS011;9211;48.818;9.312;2024-01-15T07:06:00;19.13;;;8.52;;
18172;SDS011;9211;48.818;9.312;2024-01-15T07:08:26;19.08;;;8.32;;
18172;SDS011;9211;48.818;9.312;2024-01-15T07:10:53;19.65;;;8.77;;
18172;SDS011;9211;48.818;9.312;2024-01-15T07:13:22;31.80;;;12.73;;
18172;SDS011;9211;48.818;9.312;2024-01-15T07:15:49;20.38;;;8.02;;
18172;SDS011;9211;48.818;9.312;2024-01-15T07:18:16;15.52;;;7.70;;
18172;SDS011;9211;48.818;9.312;2024-01-15T07:20:42;17.38;;;8.05;;
18172;SDS011;9211;48.818;9.312;2024-01-15T07:23:09;18.88;;;7.90;;
18172;SDS011;9211;48.818;9.312;2024-01-15T07:25:37;20.00;;;8.00;;
18172;SDS011;9211;48.818;9.312;2024-01-15T07:28:04;18.48;;;8.07;;
18172;SDS011;9211;48.818;9.312;2024-01-15T07:30:33;18.38;;;8.60;;
18172;SDS011;9211;48.818;9.312;2024-01-15T07:33:00;18.50;;;8.43;;
18172;SDS011;9211;48.818;9.312;2024-01-15T07:35:28;18.30;;;8.02;;
18172;SDS011;9211;48.818;9.312;2024-01-15T07:37:55;19.05;;;8.20;;
18172;SDS011;9211;48.818;9.312;2024-01-15T07:40:22;20.42;;;8.38;;
18172;SDS011;9211;48.818;9.312;2024-01-15T07:42:49;18.70;;;8.05;;
18172;SDS011;9211;48.818;9.312;2024-01-15T07:45:17;16.75;;;7.45;;
18172;SDS011;9211;48.818;9.312;2024-01-15T07:47:45;17.58;;;7.72;;
18172;SDS011;9211;48.818;9.312;2024-01-15T07:50:12;15.60;;;7.65;;
18172;SDS011;9211;48.818;9.312;2024-01-15T07:52:39;18.05;;;7.75;;
18172;SDS011;9211;48.818;9.312;2024-01-15T07:55:08;17.33;;;7.50;;
18172;SDS011;9211;48.818;9.312;2024-01-15T07:57:35;17.83;;;7.47;;
18172;SDS011;9211;48.818;9.312;2024-01-15T08:00:02;15.48;;;7.18;;
18172;SDS011;9211;48.818;9.312;2024-01-15T08:02:30;16.15;;;7.20;;
18172;SDS011;9211;48.818;9.312;2024-01-15T08:04:59;16.60;;;7.30;;
18172;SDS011;9211;48.818;9.312;2024-01-15T08:07:25;17.73;;;7.90;;
18172;SDS011;9211;48.818;9.312;2024-01-15T08:09:52;16.88;;;7.63;;
18172;SDS011;9211;48.818;9.312;2024-01-15T08:12:19;18.52;;;7.75;;
18172;SDS011;9211;48.818;9.312;2024-01-15T08:14:47;17.27;;;6.78;;
18172;SDS011;9211;48.818;9.312;2024-01-15T08:17:14;16.95;;;7.10;;
18172;SDS011;9211;48.818;9.312;2024-01-15T08:19:42;15.20;;;6.67;;
18172;SDS011;9211;48.818;9.312;2024-01-15T08:22:10;16.42;;;7.03;;
18172;SDS011;9211;48.818;9.312;2024-01-15T08:24:37;15.60;;;7.10;;
18172;SDS011;9211;48.818;9.312;2024-01-15T08:27:04;15.80;;;6.80;;
18172;SDS011;9211;48.818;9.312;2024-01-15T08:29:31;17.27;;;6.90;;
18172;SDS011;9211;48.818;9.312;2024-01-15T08:32:00;17.98;;;6.72;;
18172;SDS011;9211;48.818;9.312;2024-01-15T08:34:26;17.25;;;6.78;;
18172;SDS011;9211;48.818;9.312;2024-01-15T08:36:53;15.45;;;6.72;;
18172;SDS011;9211;48.818;9.312;2024-01-15T08:39:22;17.70;;;7.18;;
18172;SDS011;9211;48.818;9.312;2024-01-15T08:41:49;16.73;;;6.68;;
18172;SDS011;9211;48.818;9.312;2024-01-15T08:44:15;14.95;;;6.63;;
18172;SDS011;9211;48.818;9.312;2024-01-15T08:46:43;16.90;;;6.63;;
18172;SDS011;9211;48.818;9.312;2024-01-15T08:49:10;14.67;;;6.70;;
18172;SDS011;9211;48.818;9.312;2024-01-15T08:51:37;13.10;;;6.40;;
18172;SDS011;9211;48.818;9.312;2024-01-15T08:54:04;15.18;;;6.22;;
18172;SDS011;9211;48.818;9.312;2024-01-15T08:56:34;13.97;;;6.63;;
18172;SDS011;9211;48.818;9.312;2024-01-15T08:59:02;17.15;;;7.25;;
18172;SDS011;9211;48.818;9.312;2024-01-15T09:01:29;15.97;;;6.90;;
18172;SDS011;9211;48.818;9.312;2024-01-15T09:03:56;16.88;;;6.68;;
18172;SDS011;9211;48.818;9.312;2024-01-15T09:06:23;17.63;;;6.88;;
18172;SDS011;9211;48.818;9.312;2024-01-15T09:08:50;14.90;;;6.57;;
18172;SDS011;9211;48.818;9.312;2024-01-15T09:11:17;15.85;;;7.00;;
18172;SDS011;9211;48.818;9.312;2024-01-15T09:13:45;15.23;;;6.20;;
18172;SDS011;9211;48.818;9.312;2024-01-15T09:16:12;15.40;;;6.10;;
18172;SDS011;9211;48.818;9.312;2024-01-15T09:18:39;13.90;;;5.95;;
18172;SDS011;9211;48.818;9.312;2024-01-15T09:21:06;14.67;;;5.90;;
18172;SDS011;9211;48.818;9.312;2024-01-15T09:23:33;14.85;;;5.97;;
18172;SDS011;9211;48.818;9.312;2024-01-15T09:26:00;18.98;;;5.75;;
18172;SDS011;9211;48.818;9.312;2024-01-15T09:28:27;14.13;;;5.20;;
18172;SDS011;9211;48.818;9.312;2024-01-15T09:30:56;13.57;;;5.18;;
18172;SDS011;9211;48.818;9.312;2024-01-15T09:33:23;10.77;;;4.53;;
18172;SDS011;9211;48.818;9.312;2024-01-15T09:35:50;11.02;;;4.95;;
18172;SDS011;9211;48.818;9.312;2024-01-15T09:38:17;11.75;;;4.53;;
18172;SDS011;9211;48.818;9.312;2024-01-15T09:40:45;13.00;;;4.90;;
18172;SDS011;9211;48.818;9.312;2024-01-15T09:43:12;12.40;;;5.38;;
18172;SDS011;9211;48.818;9.312;2024-01-15T09:45:40;12.50;;;5.10;;
18172;SDS011;9211;48.818;9.312;2024-01-15T09:48:10;10.13;;;4.82;;
18172;SDS011;9211;48.818;9.312;2024-01-15T09:50:37;12.10;;;4.60;;
18172;SDS011;9211;48.818;9.312;2024-01-15T09:53:04;13.57;;;5.03;;
18172;SDS011;9211;48.818;9.312;2024-01-15T09:55:32;10.27;;;4.57;;
18172;SDS011;9211;48.818;9.312;2024-01-15T09:57:59;10.53;;;4.33;;
18172;SDS011;9211;48.818;9.312;2024-01-15T10:00:27;10.98;;;4.60;;
18172;SDS011;9211;48.818;9.312;2024-01-15T10:02:55;11.40;;;4.68;;
18172;SDS011;9211;48.818;9.312;2024-01-15T10:05:23;11.25;;;4.90;;
18172;SDS011;9211;48.818;9.312;2024-01-15T10:07:50;15.30;;;4.88;;
18172;SDS011;9211;48.818;9.312;2024-01-15T10:10:19;16.00;;;5.00;;
18172;SDS011;9211;48.818;9.312;2024-01-15T10:12:47;11.82;;;4.95;;
18172;SDS011;9211;48.818;9.312;2024-01-15T10:15:14;14.13;;;5.35;;
18172;SDS011;9211;48.818;9.312;2024-01-15T10:17:42;11.23;;;4.80;;
18172;SDS011;9211;48.818;9.312;2024-01-15T10:20:10;11.40;;;5.32;;
18172;SDS011;9211;48.818;9.312;2024-01-15T10:22:40;18.45;;;5.20;;
18172;SDS011;9211;48.818;9.312;2024-01-15T10:25:10;12.48;;;5.40;;
18172;SDS011;9211;48.818;9.312;2024-01-15T10:27:37;10.27;;;4.65;;
18172;SDS011;9211;48.818;9.312;2024-01-15T10:30:05;13.63;;;5.07;;
18172;SDS011;9211;48.818;9.312;2024-01-15T10:32:33;12.73;;;4.63;;
18172;SDS011;9211;48.818;9.312;2024-01-15T10:35:00;12.02;;;4.50;;
18172;SDS011;9211;48.818;9.312;2024-01-15T10:37:27;11.77;;;4.97;;
18172;SDS011;9211;48.818;9.312;2024-01-15T10:40:00;13.40;;;4.75;;
18172;SDS011;9211;48.818;9.312;2024-01-15T10:42:30;10.45;;;4.45;;
18172;SDS011;9211;48.818;9.312;2024-01-15T10:44:57;10.88;;;4.40;;
18172;SDS011;9211;48.818;9.312;2024-01-15T10:47:24;11.77;;;4.67;;
18172;SDS011;9211;48.818;9.312;2024-01-15T10:49:51;12.75;;;4.68;;
18172;SDS011;9211;48.818;9.312;2024-01-15T10:52:19;9.60;;;4.22;;
18172;SDS011;9211;48.818;9.312;2024-01-15T10:54:46;10.82;;;4.65;;
18172;SDS011;9211;48.818;9.312;2024-01-15T10:57:15;10.75;;;4.57;;
18172;SDS011;9211;48.818;9.312;2024-01-15T10:59:43;10.53;;;4.33;;
18172;SDS011;9211;48.818;9.312;2024-01-15T11:02:10;10.68;;;4.18;;
18172;SDS011;9211;48.818;9.312;2024-01-15T11:04:38;9.15;;;4.28;;
18172;SDS011;9211;48.818;9.312;2024-01-15T11:07:05;11.50;;;4.15;;
18172;SDS011;9211;48.818;9.312;2024-01-15T11:09:33;9.43;;;4.28;;
18172;SDS011;9211;48.818;9.312;2024-01-15T11:12:09;12.38;;;4.20;;
18172;SDS011;9211;48.818;9.312;2024-01-15T11:14:44;11.70;;;4.10;;
18172;SDS011;9211;48.818;9.312;2024-01-15T11:17:12;9.50;;;4.10;;
18172;SDS011;9211;48.818;9.312;2024-01-15T11:19:42;9.23;;;4.15;;
18172;SDS011;9211;48.818;9.312;2024-01-15T11:22:10;8.18;;;4.28;;
18172;SDS011;9211;48.818;9.312;2024-01-15T11:25:01;9.60;;;3.92;;
18172;SDS011;9211;48.818;9.312;2024-01-15T11:27:39;10.38;;;4.20;;
18172;SDS011;9211;48.818;9.312;2024-01-15T11:30:08;10.57;;;4.10;;
18172;SDS011;9211;48.818;9.312;2024-01-15T11:32:36;10.60;;;4.25;;
18172;SDS011;9211;48.818;9.312;2024-01-15T11:35:06;9.85;;;4.47;;
18172;SDS011;9211;48.818;9.312;2024-01-15T11:40:37;10.20;;;4.63;;
18172;SDS011;9211;48.818;9.312;2024-01-15T11:43:09;11.50;;;4.90;;
18172;SDS011;9211;48.818;9.312;2024-01-15T11:45:38;9.52;;;4.50;;
18172;SDS011;9211;48.818;9.312;2024-01-15T11:48:10;10.40;;;4.95;;
18172;SDS011;9211;48.818;9.312;2024-01-15T11:50:40;12.55;;;5.25;;
18172;SDS011;9211;48.818;9.312;2024-01-15T11:53:13;12.25;;;4.93;;
18172;SDS011;9211;48.818;9.312;2024-01-15T11:55:46;13.85;;;5.30;;
18172;SDS011;9211;48.818;9.312;2024-01-15T11:58:13;10.32;;;5.00;;
18172;SDS011;9211;48.818;9.312;2024-01-15T12:00:42;11.73;;;5.15;;
18172;SDS011;9211;48.818;9.312;2024-01-15T12:03:10;11.15;;;5.68;;
18172;SDS011;9211;48.818;9.312;2024-01-15T12:05:37;11.65;;;5.15;;
18172;SDS011;9211;48.818;9.312;2024-01-15T12:08:05;12.43;;;5.50;;
18172;SDS011;9211;48.818;9.312;2024-01-15T12:10:35;12.02;;;5.88;;
18172;SDS011;9211;48.818;9.312;2024-01-15T12:13:05;11.95;;;5.40;;
18172;SDS011;9211;48.818;9.312;2024-01-15T12:15:36;12.32;;;5.88;;
18172;SDS011;9211;48.818;9.312;2024-01-15T12:18:03;12.15;;;6.00;;
18172;SDS011;9211;48.818;9.312;2024-01-15T12:20:31;11.98;;;5.68;;
18172;SDS011;9211;48.818;9.312;2024-01-15T12:22:59;12.05;;;6.00;;
18172;SDS011;9211;48.818;9.312;2024-01-15T12:25:28;12.15;;;5.70;;
18172;SDS011;9211;48.818;9.312;2024-01-15T12:27:56;11.13;;;5.60;;
18172;SDS011;9211;48.818;9.312;2024-01-15T12:30:26;13.15;;;5.60;;
18172;SDS011;9211;48.818;9.312;2024-01-15T12:32:54;10.93;;;5.57;;
18172;SDS011;9211;48.818;9.312;2024-01-15T12:35:21;13.98;;;6.07;;
18172;SDS011;9211;48.818;9.312;2024-01-15T12:37:51;10.25;;;5.38;;
18172;SDS011;9211;48.818;9.312;2024-01-15T12:40:18;12.20;;;4.90;;
18172;SDS011;9211;48.818;9.312;2024-01-15T12:42:46;11.98;;;5.50;;
18172;SDS011;9211;48.818;9.312;2024-01-15T12:45:13;12.10;;;5.38;;
18172;SDS011;9211;48.818;9.312;2024-01-15T12:47:41;10.45;;;5.43;;
18172;SDS011;9211;48.818;9.312;2024-01-15T12:50:09;11.27;;;5.20;;
18172;SDS011;9211;48.818;9.312;2024-01-15T12:52:37;13.55;;;5.88;;
18172;SDS011;9211;48.818;9.312;2024-01-15T12:55:06;11.25;;;5.70;;
18172;SDS011;9211;48.818;9.312;2024-01-15T12:57:34;11.55;;;5.82;;
18172;SDS011;9211;48.818;9.312;2024-01-15T13:00:02;12.73;;;5.90;;
18172;SDS011;9211;48.818;9.312;2024-01-15T13:02:31;12.60;;;5.93;;
18172;SDS011;9211;48.818;9.312;2024-01-15T13:05:00;12.00;;;5.65;;
18172;SDS011;9211;48.818;9.312;2024-01-15T13:07:29;13.37;;;5.80;;
18172;SDS011;9211;48.818;9.312;2024-01-15T13:09:56;11.32;;;5.60;;
18172;SDS011;9211;48.818;9.312;2024-01-15T13:12:23;13.10;;;5.95;;
18172;SDS011;9211;48.818;9.312;2024-01-15T13:14:50;11.30;;;5.70;;
18172;SDS011;9211;48.818;9.312;2024-01-15T13:17:17;11.63;;;6.00;;
18172;SDS011;9211;48.818;9.312;2024-01-15T13:19:46;14.48;;;5.80;;
18172;SDS011;9211;48.818;9.312;2024-01-15T13:22:15;12.85;;;6.28;;
18172;SDS011;9211;48.818;9.312;2024-01-15T13:24:42;12.77;;;5.90;;
18172;SDS011;9211;48.818;9.312;2024-01-15T13:27:09;11.00;;;5.47;;
18172;SDS011;9211;48.818;9.312;2024-01-15T13:29:37;11.60;;;5.40;;
18172;SDS011;9211;48.818;9.312;2024-01-15T13:32:04;11.15;;;5.32;;
18172;SDS011;9211;48.818;9.312;2024-01-15T13:34:31;12.52;;;5.53;;
18172;SDS011;9211;48.818;9.312;2024-01-15T13:36:58;10.67;;;5.10;;
18172;SDS011;9211;48.818;9.312;2024-01-15T13:39:26;11.17;;;5.03;;
18172;SDS011;9211;48.818;9.312;2024-01-15T13:41:53;10.55;;;5.10;;
18172;SDS011;9211;48.818;9.312;2024-01-15T13:44:21;10.63;;;5.07;;
18172;SDS011;9211;48.818;9.312;2024-01-15T13:46:48;10.85;;;5.10;;
18172;SDS011;9211;48.818;9.312;2024-01-15T13:49:15;9.35;;;4.68;;
18172;SDS011;9211;48.818;9.312;2024-01-15T13:51:42;9.93;;;4.87;;
18172;SDS011;9211;48.818;9.312;2024-01-15T13:54:09;8.63;;;4.68;;
18172;SDS011;9211;48.818;9.312;2024-01-15T13:56:37;10.70;;;4.38;;
18172;SDS011;9211;48.818;9.312;2024-01-15T13:59:04;7.82;;;4.22;;
18172;SDS011;9211;48.818;9.312;2024-01-15T14:01:34;11.57;;;4.70;;
18172;SDS011;9211;48.818;9.312;2024-01-15T14:04:01;7.90;;;3.80;;
18172;SDS011;9211;48.818;9.312;2024-01-15T14:06:28;7.72;;;4.07;;
18172;SDS011;9211;48.818;9.312;2024-01-15T14:08:55;7.53;;;4.25;;
18172;SDS011;9211;48.818;9.312;2024-01-15T14:11:22;9.27;;;4.13;;
18172;SDS011;9211;48.818;9.312;2024-01-15T14:13:51;7.13;;;4.00;;
18172;SDS011;9211;48.818;9.312;2024-01-15T14:16:18;6.57;;;3.83;;
18172;SDS011;9211;48.818;9.312;2024-01-15T14:18:45;7.07;;;3.88;;
18172;SDS011;9211;48.818;9.312;2024-01-15T14:21:12;7.72;;;4.38;;
18172;SDS011;9211;48.818;9.312;2024-01-15T14:23:40;7.03;;;4.07;;
18172;SDS011;9211;48.818;9.312;2024-01-15T14:26:07;7.43;;;3.97;;
18172;SDS011;9211;48.818;9.312;2024-01-15T14:28:33;9.70;;;4.22;;
18172;SDS011;9211;48.818;9.312;2024-01-15T14:31:02;8.77;;;4.55;;
18172;SDS011;9211;48.818;9.312;2024-01-15T14:33:30;7.88;;;3.95;;
18172;SDS011;9211;48.818;9.312;2024-01-15T14:35:57;8.20;;;4.20;;
18172;SDS011;9211;48.818;9.312;2024-01-15T14:38:24;9.43;;;4.68;;
18172;SDS011;9211;48.818;9.312;2024-01-15T14:40:51;8.57;;;4.60;;
18172;SDS011;9211;48.818;9.312;2024-01-15T14:43:18;7.45;;;4.80;;
18172;SDS011;9211;48.818;9.312;2024-01-15T14:45:45;7.90;;;4.90;;
18172;SDS011;9211;48.818;9.312;2024-01-15T14:48:13;8.23;;;5.07;;
18172;SDS011;9211;48.818;9.312;2024-01-15T14:50:40;10.02;;;5.57;;